createdAt,value
2018-04-30T00:01:00.081Z,99.90
2018-04-30T00:03:26.076Z,99.90
2018-04-30T00:05:52.038Z,99.90
2018-04-30T00:08:18.792Z,99.90
2018-04-30T00:10:46.279Z,99.90
2018-04-30T00:13:12.235Z,99.90
2018-04-30T00:15:38.211Z,99.90
2018-04-30T00:18:04.151Z,99.90
2018-04-30T00:20:30.148Z,99.90
2018-04-30T00:22:56.136Z,99.90
2018-04-30T00:25:22.876Z,99.90
2018-04-30T00:27:48.832Z,99.90
2018-04-30T00:30:15.593Z,99.90
2018-04-30T00:32:41.548Z,99.90
2018-04-30T00:35:07.496Z,99.90
2018-04-30T00:37:33.495Z,99.90
2018-04-30T00:39:59.482Z,99.90
2018-04-30T00:42:25.476Z,99.90
2018-04-30T00:44:51.445Z,99.90
2018-04-30T00:47:17.421Z,99.90
2018-04-30T00:49:43.426Z,99.90
2018-04-30T00:52:09.400Z,99.90
2018-04-30T00:54:48.772Z,99.90
2018-04-30T00:57:15.412Z,99.90
2018-04-30T00:59:41.415Z,99.90
2018-04-30T01:02:07.392Z,99.90
2018-04-30T01:04:33.359Z,99.90
2018-04-30T01:06:59.360Z,99.90
2018-04-30T01:09:25.346Z,99.90
2018-04-30T01:11:51.349Z,99.90
2018-04-30T01:14:17.369Z,99.90
2018-04-30T01:16:44.104Z,99.90
2018-04-30T01:19:10.060Z,99.90
2018-04-30T01:21:36.759Z,99.90
2018-04-30T01:24:02.728Z,99.90
2018-04-30T01:26:28.706Z,99.90
2018-04-30T01:28:54.681Z,99.90
2018-04-30T01:31:20.652Z,99.90
2018-04-30T01:33:47.387Z,99.90
2018-04-30T01:36:13.349Z,99.90
2018-04-30T01:38:39.335Z,99.90
2018-04-30T01:41:05.294Z,99.90
2018-04-30T01:43:31.280Z,99.90
2018-04-30T01:45:57.304Z,99.90
2018-04-30T01:48:23.298Z,99.90
2018-04-30T01:50:49.259Z,99.90
2018-04-30T01:53:16.001Z,99.90
2018-04-30T01:55:42.736Z,99.90
2018-04-30T01:58:08.744Z,99.90
2018-04-30T02:00:34.695Z,99.90
2018-04-30T02:03:00.696Z,99.90
2018-04-30T02:05:26.688Z,99.90
2018-04-30T02:07:52.635Z,99.90
2018-04-30T02:10:19.379Z,99.90
2018-04-30T02:12:45.335Z,99.90
2018-04-30T02:15:12.076Z,99.90
2018-04-30T02:17:38.067Z,99.90
2018-04-30T02:20:04.023Z,99.90
2018-04-30T02:22:30.027Z,99.90
2018-04-30T02:24:55.987Z,99.90
2018-04-30T02:27:21.947Z,99.90
2018-04-30T02:29:47.935Z,99.90
2018-04-30T02:32:13.891Z,99.90
2018-04-30T02:34:39.874Z,99.90
2018-04-30T02:37:06.571Z,99.90
2018-04-30T02:39:32.543Z,99.90
2018-04-30T02:41:58.565Z,99.90
2018-04-30T02:44:24.596Z,99.90
2018-04-30T02:46:50.564Z,99.90
2018-04-30T02:49:17.299Z,99.90
2018-04-30T02:51:43.284Z,99.90
2018-04-30T02:54:09.240Z,99.90
2018-04-30T02:56:35.223Z,99.90
2018-04-30T02:59:01.960Z,99.90
2018-04-30T03:01:27.990Z,99.90
2018-04-30T03:03:54.003Z,99.90
2018-04-30T03:06:19.987Z,99.90
2018-04-30T03:08:46.699Z,99.90
2018-04-30T03:11:12.696Z,99.90
2018-04-30T03:13:39.391Z,99.90
2018-04-30T03:16:05.375Z,99.90
2018-04-30T03:18:32.075Z,99.90
2018-04-30T03:20:58.060Z,99.90
2018-04-30T03:23:24.799Z,99.90
2018-04-30T03:25:50.795Z,99.90
2018-04-30T03:28:16.910Z,99.90
2018-04-30T03:30:42.879Z,99.90
2018-04-30T03:33:08.939Z,99.90
2018-04-30T03:35:34.923Z,99.90
2018-04-30T03:38:00.874Z,99.90
2018-04-30T03:40:26.867Z,99.90
2018-04-30T03:42:53.568Z,99.90
2018-04-30T03:45:19.551Z,99.90
2018-04-30T03:47:45.559Z,99.90
2018-04-30T03:50:11.551Z,99.90
2018-04-30T03:52:38.319Z,99.90
2018-04-30T03:55:04.304Z,99.90
2018-04-30T03:57:30.282Z,99.90
2018-04-30T03:59:56.263Z,99.90
2018-04-30T04:02:34.639Z,99.90
2018-04-30T04:05:13.841Z,99.90
2018-04-30T04:07:39.827Z,99.90
2018-04-30T04:10:05.811Z,99.90
2018-04-30T04:12:31.801Z,99.90
2018-04-30T04:14:57.767Z,99.90
2018-04-30T04:17:23.714Z,99.90
2018-04-30T04:19:49.701Z,99.90
2018-04-30T04:22:16.397Z,99.90
2018-04-30T04:24:42.362Z,99.90
2018-04-30T04:27:08.411Z,99.90
2018-04-30T04:29:34.364Z,99.90
2018-04-30T04:32:00.354Z,99.90
2018-04-30T04:34:26.767Z,99.90
2018-04-30T04:36:52.763Z,99.90
2018-04-30T04:39:18.739Z,99.90
2018-04-30T04:41:44.796Z,99.90
2018-04-30T04:44:11.482Z,99.90
2018-04-30T04:46:38.216Z,99.90
2018-04-30T04:49:04.198Z,99.90
2018-04-30T04:51:30.961Z,99.90
2018-04-30T04:53:57.676Z,99.90
2018-04-30T04:56:23.658Z,99.90
2018-04-30T04:58:49.679Z,99.90
2018-04-30T05:01:16.411Z,99.90
2018-04-30T05:03:42.392Z,99.90
2018-04-30T05:06:08.384Z,99.90
2018-04-30T05:08:34.353Z,99.90
2018-04-30T05:11:00.420Z,99.90
2018-04-30T05:13:26.356Z,99.90
2018-04-30T05:15:52.312Z,99.90
2018-04-30T05:18:18.303Z,99.90
2018-04-30T05:20:44.314Z,99.90
2018-04-30T05:23:11.027Z,99.90
2018-04-30T05:25:37.046Z,99.90
2018-04-30T05:28:03.043Z,99.90
2018-04-30T05:30:29.760Z,99.90
2018-04-30T05:32:55.840Z,99.90
2018-04-30T05:35:22.574Z,99.90
2018-04-30T05:37:48.568Z,99.90
2018-04-30T05:40:14.553Z,99.90
2018-04-30T05:42:40.560Z,99.90
2018-04-30T05:45:06.571Z,99.90
2018-04-30T05:47:32.575Z,99.90
2018-04-30T05:49:59.337Z,99.90
2018-04-30T05:52:26.109Z,99.90
2018-04-30T05:54:52.071Z,99.90
2018-04-30T05:57:18.059Z,99.90
2018-04-30T05:59:44.872Z,99.90
2018-04-30T06:02:10.862Z,99.90
2018-04-30T06:04:37.558Z,99.90
2018-04-30T06:07:03.719Z,99.90
2018-04-30T06:09:29.697Z,99.90
2018-04-30T06:11:55.660Z,99.90
2018-04-30T06:14:22.465Z,99.90
2018-04-30T06:16:48.464Z,99.90
2018-04-30T06:19:14.605Z,99.50
2018-04-30T06:21:40.788Z,98.60
2018-04-30T06:24:06.804Z,98.60
2018-04-30T06:26:33.613Z,98.10
2018-04-30T06:29:00.412Z,98.00
2018-04-30T06:31:26.441Z,97.40
2018-04-30T06:33:52.400Z,97.40
2018-04-30T06:36:18.423Z,96.90
2018-04-30T06:38:44.399Z,95.70
2018-04-30T06:41:10.379Z,94.90
2018-04-30T06:43:36.373Z,95.60
2018-04-30T06:46:02.316Z,95.80
2018-04-30T06:48:28.279Z,95.00
2018-04-30T06:50:54.306Z,94.00
2018-04-30T06:53:20.302Z,93.70
2018-04-30T06:55:46.272Z,93.50
2018-04-30T06:58:12.219Z,93.70
2018-04-30T07:00:38.435Z,93.70
2018-04-30T07:03:04.423Z,93.70
2018-04-30T07:05:30.447Z,93.90
2018-04-30T07:07:56.471Z,92.80
2018-04-30T07:10:22.415Z,93.00
2018-04-30T07:12:48.403Z,92.30
2018-04-30T07:15:14.400Z,92.90
2018-04-30T07:17:40.386Z,92.90
2018-04-30T07:20:06.435Z,92.40
2018-04-30T07:22:32.370Z,92.60
2018-04-30T07:24:58.327Z,92.20
2018-04-30T07:27:24.335Z,91.60
2018-04-30T07:29:50.299Z,90.70
2018-04-30T07:32:16.403Z,90.10
2018-04-30T07:34:42.356Z,90.60
2018-04-30T07:37:08.371Z,91.50
2018-04-30T07:39:34.391Z,90.20
2018-04-30T07:42:01.096Z,91.00
2018-04-30T07:44:27.150Z,91.00
2018-04-30T07:46:53.099Z,89.40
2018-04-30T07:49:19.135Z,86.30
2018-04-30T07:51:45.085Z,88.30
2018-04-30T07:54:11.822Z,87.80
2018-04-30T07:56:46.171Z,84.90
2018-04-30T07:59:12.905Z,87.00
2018-04-30T08:01:38.907Z,87.10
2018-04-30T08:04:04.878Z,82.70
2018-04-30T08:06:30.833Z,82.40
2018-04-30T08:08:57.571Z,80.20
2018-04-30T08:11:23.519Z,80.20
2018-04-30T08:13:50.254Z,71.30
2018-04-30T08:16:16.611Z,71.30
2018-04-30T08:18:42.564Z,72.50
2018-04-30T08:21:09.354Z,70.80
2018-04-30T08:23:35.304Z,70.80
2018-04-30T08:26:01.287Z,70.20
2018-04-30T08:28:27.996Z,73.10
2018-04-30T08:30:54.015Z,73.10
2018-04-30T08:33:19.962Z,73.30
2018-04-30T08:35:45.918Z,73.80
2018-04-30T08:38:11.927Z,74.80
2018-04-30T08:40:37.898Z,77.00
2018-04-30T08:43:03.879Z,78.10
2018-04-30T08:45:29.859Z,78.30
2018-04-30T08:47:55.827Z,79.00
2018-04-30T08:50:22.552Z,79.80
2018-04-30T08:52:48.510Z,79.80
2018-04-30T08:55:15.199Z,76.20
2018-04-30T08:57:41.199Z,76.00
2018-04-30T09:00:07.184Z,75.60
2018-04-30T09:02:33.182Z,75.50
2018-04-30T09:04:59.888Z,76.10
2018-04-30T09:07:25.876Z,75.90
2018-04-30T09:09:52.614Z,73.60
2018-04-30T09:12:18.583Z,73.60
2018-04-30T09:14:44.591Z,73.40
2018-04-30T09:17:11.331Z,72.20
2018-04-30T09:19:37.455Z,72.20
2018-04-30T09:22:03.499Z,71.20
2018-04-30T09:24:29.520Z,70.90
2018-04-30T09:26:55.475Z,70.80
2018-04-30T09:29:21.459Z,70.10
2018-04-30T09:31:48.023Z,70.40
2018-04-30T09:34:13.975Z,70.20
2018-04-30T09:36:39.980Z,70.50
2018-04-30T09:39:05.932Z,69.70
2018-04-30T09:41:31.966Z,70.30
2018-04-30T09:43:57.914Z,66.50
2018-04-30T09:46:23.902Z,66.10
2018-04-30T09:48:50.642Z,65.20
2018-04-30T09:51:16.631Z,65.10
2018-04-30T09:53:42.610Z,65.30
2018-04-30T09:56:08.708Z,63.90
2018-04-30T09:58:34.719Z,63.20
2018-04-30T10:01:00.687Z,61.40
2018-04-30T10:03:26.692Z,59.70
2018-04-30T10:05:52.798Z,59.40
2018-04-30T10:08:18.765Z,58.60
2018-04-30T10:10:44.747Z,58.70
2018-04-30T10:13:10.712Z,58.40
2018-04-30T10:15:37.522Z,58.20
2018-04-30T10:18:03.487Z,58.20
2018-04-30T10:20:29.475Z,57.50
2018-04-30T10:22:55.495Z,57.60
2018-04-30T10:25:22.203Z,58.30
2018-04-30T10:27:48.306Z,57.70
2018-04-30T10:30:14.311Z,56.90
2018-04-30T10:32:41.023Z,56.20
2018-04-30T10:35:07.146Z,56.10
2018-04-30T10:37:33.163Z,56.20
2018-04-30T10:39:59.129Z,57.00
2018-04-30T10:42:25.142Z,56.90
2018-04-30T10:44:51.130Z,57.20
2018-04-30T10:47:17.154Z,57.40
2018-04-30T10:49:43.143Z,56.90
2018-04-30T10:52:09.118Z,57.00
2018-04-30T10:54:35.127Z,56.80
2018-04-30T10:57:01.085Z,56.50
2018-04-30T10:59:27.117Z,56.80
2018-04-30T11:01:53.107Z,55.40
2018-04-30T11:04:19.828Z,55.40
2018-04-30T11:06:45.795Z,55.30
2018-04-30T11:09:12.543Z,52.60
2018-04-30T11:11:38.536Z,52.60
2018-04-30T11:14:04.582Z,51.70
2018-04-30T11:16:30.579Z,52.60
2018-04-30T11:18:56.614Z,50.80
2018-04-30T11:21:22.592Z,50.20
2018-04-30T11:23:48.604Z,49.60
2018-04-30T11:26:14.557Z,48.40
2018-04-30T11:28:40.588Z,47.30
2018-04-30T11:31:06.592Z,48.00
2018-04-30T11:33:33.314Z,48.10
2018-04-30T11:35:59.334Z,48.10
2018-04-30T11:38:25.327Z,48.40
2018-04-30T11:40:51.313Z,47.40
2018-04-30T11:43:17.331Z,47.50
2018-04-30T11:45:43.328Z,47.60
2018-04-30T11:48:09.359Z,47.70
2018-04-30T11:50:35.319Z,47.70
2018-04-30T11:53:01.271Z,46.30
2018-04-30T11:55:27.296Z,45.80
2018-04-30T11:57:53.269Z,44.40
2018-04-30T12:00:19.368Z,44.90
2018-04-30T12:02:45.335Z,45.80
2018-04-30T12:05:11.306Z,45.00
2018-04-30T12:07:38.086Z,44.60
2018-04-30T12:10:04.052Z,44.60
2018-04-30T12:12:30.016Z,45.30
2018-04-30T12:14:56.006Z,44.40
2018-04-30T12:17:21.975Z,44.60
2018-04-30T12:19:47.994Z,43.70
2018-04-30T12:22:13.975Z,44.40
2018-04-30T12:24:40.701Z,42.90
2018-04-30T12:27:06.739Z,43.40
2018-04-30T12:29:32.719Z,42.50
2018-04-30T12:31:58.734Z,41.60
2018-04-30T12:34:25.492Z,41.30
2018-04-30T12:36:51.459Z,41.30
2018-04-30T12:39:17.494Z,42.30
2018-04-30T12:41:43.468Z,41.60
2018-04-30T12:44:09.540Z,40.40
2018-04-30T12:46:35.568Z,42.20
2018-04-30T12:49:01.526Z,40.60
2018-04-30T12:51:27.632Z,39.90
2018-04-30T12:53:53.595Z,40.10
2018-04-30T12:56:20.318Z,38.70
2018-04-30T12:58:47.779Z,39.70
2018-04-30T13:01:13.739Z,39.70
2018-04-30T13:03:39.711Z,38.30
2018-04-30T13:06:05.735Z,39.60
2018-04-30T13:08:31.699Z,40.70
2018-04-30T13:10:57.723Z,40.70
2018-04-30T13:13:23.734Z,40.70
2018-04-30T13:15:50.439Z,41.90
2018-04-30T13:18:16.451Z,41.80
2018-04-30T13:20:42.403Z,42.40
2018-04-30T13:23:08.411Z,38.90
2018-04-30T13:25:35.142Z,38.00
2018-04-30T13:28:01.126Z,37.90
2018-04-30T13:30:27.127Z,37.30
2018-04-30T13:32:53.858Z,39.20
2018-04-30T13:35:19.815Z,39.10
2018-04-30T13:37:46.551Z,37.60
2018-04-30T13:40:12.522Z,37.60
2018-04-30T13:42:39.236Z,37.80
2018-04-30T13:45:05.218Z,37.60
2018-04-30T13:47:31.206Z,35.30
2018-04-30T13:49:57.174Z,35.10
2018-04-30T13:52:23.903Z,38.00
2018-04-30T13:54:49.858Z,37.90
2018-04-30T13:57:16.603Z,39.00
2018-04-30T13:59:42.559Z,39.00
2018-04-30T14:02:09.266Z,38.80
2018-04-30T14:04:36.779Z,36.90
2018-04-30T14:07:03.476Z,36.20
2018-04-30T14:09:29.430Z,36.20
2018-04-30T14:11:55.427Z,36.00
2018-04-30T14:14:21.419Z,35.20
2018-04-30T14:16:47.381Z,37.40
2018-04-30T14:19:13.404Z,40.30
2018-04-30T14:21:40.130Z,37.40
2018-04-30T14:24:06.127Z,37.30
2018-04-30T14:26:32.075Z,36.90
2018-04-30T14:28:58.063Z,35.50
2018-04-30T14:31:25.519Z,32.50
2018-04-30T14:33:51.580Z,33.00
2018-04-30T14:36:17.515Z,33.80
2018-04-30T14:38:44.213Z,32.00
2018-04-30T14:41:10.207Z,32.00
2018-04-30T14:43:36.168Z,30.90
2018-04-30T14:46:02.153Z,32.70
2018-04-30T14:48:28.137Z,32.20
2018-04-30T14:50:54.126Z,33.50
2018-04-30T14:53:20.113Z,32.50
2018-04-30T14:55:46.088Z,34.80
2018-04-30T14:58:12.131Z,35.50
2018-04-30T15:00:38.146Z,34.40
2018-04-30T15:03:04.142Z,34.10
2018-04-30T15:05:30.159Z,35.20
2018-04-30T15:07:56.960Z,35.90
2018-04-30T15:10:22.941Z,35.40
2018-04-30T15:12:55.824Z,36.90
2018-04-30T15:15:21.911Z,37.10
2018-04-30T15:17:47.902Z,37.30
2018-04-30T15:20:13.913Z,37.90
2018-04-30T15:22:40.053Z,37.60
2018-04-30T15:25:06.010Z,35.50
2018-04-30T15:27:32.016Z,36.70
2018-04-30T15:29:57.971Z,36.20
2018-04-30T15:32:24.011Z,37.00
2018-04-30T15:34:49.969Z,36.20
2018-04-30T15:37:22.990Z,36.40
2018-04-30T15:39:49.692Z,36.00
2018-04-30T15:42:15.688Z,36.00
2018-04-30T15:44:42.454Z,36.60
2018-04-30T15:47:08.471Z,36.50
2018-04-30T15:49:35.163Z,36.70
2018-04-30T15:52:01.162Z,36.60
2018-04-30T15:54:27.945Z,37.10
2018-04-30T15:56:53.912Z,37.00
2018-04-30T15:59:19.887Z,37.40
2018-04-30T16:01:46.615Z,37.50
2018-04-30T16:04:12.627Z,37.40
2018-04-30T16:06:38.628Z,37.20
2018-04-30T16:09:04.627Z,37.90
2018-04-30T16:11:30.579Z,37.40
2018-04-30T16:13:57.405Z,38.20
2018-04-30T16:16:23.310Z,38.10
2018-04-30T16:18:49.263Z,38.10
2018-04-30T16:21:15.270Z,38.20
2018-04-30T16:23:41.268Z,38.20
2018-04-30T16:26:08.031Z,38.40
2018-04-30T16:28:34.767Z,38.30
2018-04-30T16:31:01.482Z,38.40
2018-04-30T16:33:27.451Z,38.40
2018-04-30T16:35:53.464Z,38.80
2018-04-30T16:38:19.436Z,39.00
2018-04-30T16:40:45.483Z,39.30
2018-04-30T16:43:11.442Z,39.60
2018-04-30T16:45:37.610Z,39.50
2018-04-30T16:48:03.583Z,39.80
2018-04-30T16:50:30.283Z,40.60
2018-04-30T16:52:56.292Z,40.70
2018-04-30T16:55:23.015Z,39.70
2018-04-30T16:57:48.971Z,39.70
2018-04-30T17:00:15.714Z,39.50
2018-04-30T17:02:41.674Z,39.50
2018-04-30T17:05:08.479Z,40.20
2018-04-30T17:07:34.427Z,40.10
2018-04-30T17:10:00.424Z,40.10
2018-04-30T17:12:26.474Z,40.30
2018-04-30T17:14:52.495Z,40.20
2018-04-30T17:17:18.447Z,40.40
2018-04-30T17:19:44.422Z,40.60
2018-04-30T17:22:11.171Z,40.60
2018-04-30T17:24:37.362Z,40.60
2018-04-30T17:27:03.355Z,40.90
2018-04-30T17:29:29.381Z,40.90
2018-04-30T17:31:55.338Z,41.20
2018-04-30T17:34:22.100Z,42.10
2018-04-30T17:36:48.843Z,41.30
2018-04-30T17:39:14.820Z,41.30
2018-04-30T17:41:40.795Z,41.50
2018-04-30T17:44:06.792Z,42.00
2018-04-30T17:46:32.744Z,42.20
2018-04-30T17:48:58.783Z,42.90
2018-04-30T17:51:24.767Z,43.20
2018-04-30T17:53:50.739Z,43.90
2018-04-30T17:56:16.729Z,43.90
2018-04-30T17:58:42.715Z,43.90
2018-04-30T18:01:08.752Z,44.90
2018-04-30T18:03:34.759Z,44.70
2018-04-30T18:06:01.455Z,45.20
2018-04-30T18:08:27.443Z,45.10
2018-04-30T18:10:54.167Z,45.70
2018-04-30T18:13:20.201Z,45.50
2018-04-30T18:15:46.217Z,45.60
2018-04-30T18:18:12.186Z,45.90
2018-04-30T18:20:39.006Z,47.60
2018-04-30T18:23:04.955Z,48.20
2018-04-30T18:25:30.960Z,48.30
2018-04-30T18:27:56.996Z,49.90
2018-04-30T18:30:22.978Z,49.50
2018-04-30T18:32:49.019Z,48.10
2018-04-30T18:35:15.135Z,48.80
2018-04-30T18:37:41.363Z,49.90
2018-04-30T18:40:07.311Z,50.30
2018-04-30T18:42:33.351Z,50.80
2018-04-30T18:44:59.323Z,50.50
2018-04-30T18:47:25.311Z,51.50
2018-04-30T18:49:51.263Z,51.30
2018-04-30T18:52:17.345Z,52.40
2018-04-30T18:54:43.247Z,53.60
2018-04-30T18:57:09.285Z,54.70
2018-04-30T18:59:35.271Z,55.50
2018-04-30T19:02:01.280Z,55.80
2018-04-30T19:04:28.140Z,55.60
2018-04-30T19:06:54.419Z,55.60
2018-04-30T19:09:20.455Z,55.90
2018-04-30T19:11:46.474Z,56.00
2018-04-30T19:14:12.435Z,56.60
2018-04-30T19:16:38.415Z,57.10
2018-04-30T19:19:04.366Z,57.70
2018-04-30T19:21:31.055Z,58.40
2018-04-30T19:23:57.086Z,58.40
2018-04-30T19:26:23.078Z,58.50
2018-04-30T19:28:49.770Z,59.50
2018-04-30T19:31:15.867Z,59.50
2018-04-30T19:33:41.927Z,59.70
2018-04-30T19:36:07.844Z,59.80
2018-04-30T19:38:33.844Z,61.10
2018-04-30T19:40:59.861Z,60.90
2018-04-30T19:43:25.851Z,60.10
2018-04-30T19:45:51.811Z,60.90
2018-04-30T19:48:18.544Z,62.00
2018-04-30T19:50:45.329Z,63.20
2018-04-30T19:53:11.315Z,63.20
2018-04-30T19:55:37.311Z,63.30
2018-04-30T19:58:03.367Z,63.90
2018-04-30T20:00:29.346Z,64.80
2018-04-30T20:02:55.311Z,64.20
2018-04-30T20:05:21.329Z,64.10
2018-04-30T20:07:48.058Z,67.40
2018-04-30T20:10:14.007Z,67.40
2018-04-30T20:12:40.025Z,67.90
2018-04-30T20:15:05.970Z,68.80
2018-04-30T20:17:31.955Z,69.50
2018-04-30T20:19:58.019Z,66.60
2018-04-30T20:22:24.108Z,66.50
2018-04-30T20:24:50.183Z,66.50
2018-04-30T20:27:16.224Z,65.70
2018-04-30T20:29:42.201Z,66.00
2018-04-30T20:32:08.203Z,64.80
2018-04-30T20:34:34.251Z,65.30
2018-04-30T20:37:00.294Z,66.40
2018-04-30T20:39:26.290Z,65.40
2018-04-30T20:41:52.299Z,64.80
2018-04-30T20:44:19.096Z,65.10
2018-04-30T20:46:45.781Z,66.80
2018-04-30T20:49:11.791Z,66.70
2018-04-30T20:51:37.755Z,66.50
2018-04-30T20:54:03.767Z,65.50
2018-04-30T20:56:29.761Z,65.50
2018-04-30T20:58:56.534Z,67.10
2018-04-30T21:01:22.540Z,67.10
2018-04-30T21:03:49.281Z,68.20
2018-04-30T21:06:15.314Z,68.20
2018-04-30T21:08:53.597Z,66.60
2018-04-30T21:11:19.672Z,66.80
2018-04-30T21:13:45.630Z,67.30
2018-04-30T21:16:12.368Z,67.20
2018-04-30T21:18:38.336Z,67.10
2018-04-30T21:21:05.039Z,69.50
2018-04-30T21:23:31.019Z,69.50
2018-04-30T21:25:57.719Z,68.20
2018-04-30T21:28:23.734Z,68.20
2018-04-30T21:30:49.762Z,68.50
2018-04-30T21:33:15.708Z,69.60
2018-04-30T21:35:41.728Z,70.30
2018-04-30T21:38:07.687Z,70.30
2018-04-30T21:40:33.691Z,70.20
2018-04-30T21:43:00.392Z,70.70
2018-04-30T21:45:26.424Z,70.60
2018-04-30T21:47:52.443Z,70.20
2018-04-30T21:50:18.395Z,68.90
2018-04-30T21:52:44.396Z,69.00
2018-04-30T21:55:11.103Z,69.60
2018-04-30T21:57:37.067Z,69.60
2018-04-30T22:00:03.024Z,70.10
2018-04-30T22:02:29.004Z,70.50
2018-04-30T22:04:54.995Z,71.30
2018-04-30T22:07:20.943Z,73.10
2018-04-30T22:09:46.939Z,72.80
2018-04-30T22:12:12.989Z,73.40
2018-04-30T22:14:38.915Z,73.90
2018-04-30T22:17:04.866Z,73.10
2018-04-30T22:19:31.587Z,74.20
2018-04-30T22:21:58.302Z,75.50
2018-04-30T22:24:24.300Z,75.20
2018-04-30T22:26:50.267Z,75.30
2018-04-30T22:29:16.266Z,76.00
2018-04-30T22:31:42.235Z,76.70
2018-04-30T22:34:08.252Z,76.40
2018-04-30T22:36:34.983Z,76.10
2018-04-30T22:39:01.722Z,77.50
2018-04-30T22:41:27.721Z,77.60
2018-04-30T22:43:53.680Z,77.00
2018-04-30T22:46:19.639Z,79.20
2018-04-30T22:48:45.614Z,79.10
2018-04-30T22:51:11.580Z,77.90
2018-04-30T22:53:37.568Z,77.20
2018-04-30T22:56:03.539Z,77.60
2018-04-30T22:58:29.518Z,78.90
2018-04-30T23:00:55.522Z,78.40
2018-04-30T23:03:21.460Z,78.60
2018-04-30T23:05:47.431Z,77.20
2018-04-30T23:08:13.606Z,76.90
2018-04-30T23:10:39.563Z,77.60
2018-04-30T23:13:05.540Z,76.70
2018-04-30T23:15:32.266Z,75.10
2018-04-30T23:17:58.284Z,75.20
2018-04-30T23:20:24.326Z,75.30
2018-04-30T23:22:50.320Z,76.30
2018-04-30T23:25:17.032Z,76.80
2018-04-30T23:27:43.023Z,76.80
2018-04-30T23:30:09.731Z,77.40
2018-04-30T23:32:35.726Z,77.40
2018-04-30T23:35:01.680Z,76.90
2018-04-30T23:37:27.629Z,76.60
2018-04-30T23:39:53.631Z,76.60
2018-04-30T23:42:19.626Z,76.00
2018-04-30T23:44:45.607Z,75.60
2018-04-30T23:47:11.594Z,76.60
2018-04-30T23:49:37.551Z,77.10
2018-04-30T23:52:03.526Z,77.10
2018-04-30T23:54:29.482Z,76.40
2018-04-30T23:56:55.491Z,75.70
2018-04-30T23:59:21.459Z,74.80
